Hamilton, Illinois
Current Conditions -  °F | °C
As of 12:55 PM on Sunday 23 Nov 2014 (Local Time) from KEOK Reporting Station
Haze Haze  
Wind Chill: 12°   Ceiling: 500
Heat Index: 12°   Visibility: 6mi
Dew Point: 11°   Wind: 8mph
Humidity: 94%   Direction: 170°S
Pressure: 29.41"   Gusts: NA
Location:  40.4°N, 91.34°W
Report Text: KEOK 231855Z AUTO 17007KT 6SM BR OVC005 12/11 A2941 RMK AO2 P0002
Loading
Personal Weather Stations






























Interactive Weather Map New forecast layout! Learn more

10-Day Weather Forecast

Advertisements
Track Severe Weather on mobile